PPI weather

Port Pirie Airport
South Australia, Australia

Public forecast

Using degrees Celsius for public forecast. Weather courtesy of forecast.io.

Closest aviation weather report (METAR) to Port Pirie Airport

Closest report is Whyalla Airport, 26.5 nm (49.0 km) WNW. Retrieved 2019/10/14 11:00 UTC (45 minutes ago):

YWHA 141100Z AUTO 18003KT 9999 // ////// 14/10 Q1016

Closest aviation forecast (TAF) to Port Pirie Airport

Forecast is more than 12 hours old.

Closest forecast is Whyalla Airport, 26.5 nm (49.0 km) WNW. Retrieved 2018/11/15 18:03 UTC (11 months ago):

TAF YWHA 151701Z 1518/1608 VRB05KT CAVOK FM152300 18012KT CAVOK FM160200 18018KT CAVOK